www.cux-wetter.de
Wetterdaten: Freitag, 28.01.2011
Datum Zeit Temp. A. Feuchte A. Luftdruck Regen Wind Richtung Richtung Sonnenschein Solar Taupunkt Windchill Windben
28.01.2011 00:04 -2,5 C 80 % 1026,5 hPa 0,0 l/m 0,0 km/h (0 Bft) O 100 0 min 0 W/m -5,5 C -2,5 C 0,0 km/h (0 Bft)
28.01.2011 00:09 -2,6 C 80 % 1026,5 hPa 0,0 l/m 0,0 km/h (0 Bft) O 100 0 min 0 W/m -5,6 C -2,6 C 0,0 km/h (0 Bft)
28.01.2011 00:14 -2,6 C 80 % 1026,5 hPa 0,0 l/m 0,4 km/h (0 Bft) O 100 0 min 0 W/m -5,6 C -2,6 C 0,4 km/h (0 Bft)
28.01.2011 00:19 -2,6 C 80 % 1026,5 hPa 0,0 l/m 0,6 km/h (0 Bft) O 100 0 min 0 W/m -5,6 C -2,6 C 0,6 km/h (0 Bft)
28.01.2011 00:24 -2,6 C 80 % 1026,5 hPa 0,0 l/m 7,0 km/h (2 Bft) O-SO 110 0 min 0 W/m -5,6 C -3,3 C 7,0 km/h (2 Bft)
28.01.2011 00:29 -2,6 C 80 % 1026,5 hPa 0,0 l/m 3,1 km/h (1 Bft) O-SO 110 0 min 0 W/m -5,6 C -2,6 C 3,1 km/h (1 Bft)
28.01.2011 00:34 -2,6 C 80 % 1026,5 hPa 0,0 l/m 3,3 km/h (1 Bft) O-SO 110 0 min 0 W/m -5,6 C -2,6 C 3,3 km/h (1 Bft)
28.01.2011 00:39 -2,6 C 80 % 1026,5 hPa 0,0 l/m 0,9 km/h (0 Bft) O-SO 110 0 min 0 W/m -5,6 C -2,6 C 0,9 km/h (0 Bft)
28.01.2011 00:45 -2,6 C 80 % 1026,5 hPa 0,0 l/m 4,6 km/h (1 Bft) O-SO 110 0 min 0 W/m -5,6 C -2,6 C 4,6 km/h (1 Bft)
28.01.2011 00:49 -2,6 C 80 % 1026,5 hPa 0,0 l/m 5,7 km/h (2 Bft) O-SO 120 0 min 0 W/m -5,6 C -2,6 C 5,7 km/h (2 Bft)
28.01.2011 00:54 -2,6 C 80 % 1026,5 hPa 0,0 l/m 1,3 km/h (1 Bft) O-SO 110 0 min 0 W/m -5,6 C -2,6 C 1,3 km/h (1 Bft)
28.01.2011 00:59 -2,6 C 80 % 1026,5 hPa 0,0 l/m 3,7 km/h (1 Bft) O-SO 120 0 min 0 W/m -5,6 C -2,6 C 3,7 km/h (1 Bft)
28.01.2011 01:04 -2,6 C 80 % 1026,5 hPa 0,0 l/m 4,2 km/h (1 Bft) O 100 0 min 0 W/m -5,6 C -2,6 C 4,2 km/h (1 Bft)
28.01.2011 01:09 -2,6 C 80 % 1026,5 hPa 0,0 l/m 1,9 km/h (1 Bft) O 90 0 min 0 W/m -5,6 C -2,6 C 1,9 km/h (1 Bft)
28.01.2011 01:15 -2,6 C 80 % 1026,5 hPa 0,0 l/m 1,1 km/h (1 Bft) O-NO 75 0 min 0 W/m -5,6 C -2,6 C 1,1 km/h (1 Bft)
28.01.2011 01:20 -2,6 C 80 % 1026,5 hPa 0,0 l/m 0,3 km/h (0 Bft) O-NO 75 0 min 0 W/m -5,6 C -2,6 C 0,3 km/h (0 Bft)
28.01.2011 01:24 -2,6 C 80 % 1026,5 hPa 0,0 l/m 4,9 km/h (1 Bft) O 95 0 min 0 W/m -5,6 C -2,6 C 4,9 km/h (1 Bft)
28.01.2011 01:29 -2,6 C 80 % 1026,5 hPa 0,0 l/m 6,2 km/h (2 Bft) O 100 0 min 0 W/m -5,6 C -2,6 C 6,2 km/h (2 Bft)
28.01.2011 01:34 -2,6 C 80 % 1026,5 hPa 0,0 l/m 0,5 km/h (0 Bft) O 95 0 min 0 W/m -5,6 C -2,6 C 0,5 km/h (0 Bft)
28.01.2011 01:39 -2,6 C 80 % 1026,5 hPa 0,0 l/m 3,2 km/h (1 Bft) O-SO 105 0 min 0 W/m -5,6 C -2,6 C 3,2 km/h (1 Bft)
28.01.2011 01:44 -2,6 C 80 % 1026,5 hPa 0,0 l/m 7,8 km/h (2 Bft) O-SO 105 0 min 0 W/m -5,6 C -4,2 C 7,8 km/h (2 Bft)
28.01.2011 01:49 -2,6 C 80 % 1026,5 hPa 0,0 l/m 4,6 km/h (1 Bft) O-SO 105 0 min 0 W/m -5,6 C -2,6 C 4,6 km/h (1 Bft)
28.01.2011 01:54 -2,6 C 80 % 1026,5 hPa 0,0 l/m 6,2 km/h (2 Bft) O-SO 105 0 min 0 W/m -5,6 C -2,6 C 6,2 km/h (2 Bft)
28.01.2011 02:00 -2,6 C 80 % 1026,5 hPa 0,0 l/m 5,7 km/h (2 Bft) O-SO 105 0 min 0 W/m -5,6 C -2,6 C 5,7 km/h (2 Bft)
28.01.2011 02:04 -2,6 C 80 % 1026,5 hPa 0,0 l/m 8,1 km/h (2 Bft) O 95 0 min 0 W/m -5,6 C -4,5 C 8,1 km/h (2 Bft)
28.01.2011 02:09 -2,6 C 81 % 1026,5 hPa 0,0 l/m 5,9 km/h (2 Bft) O-SO 110 0 min 0 W/m -5,4 C -2,6 C 5,9 km/h (2 Bft)
28.01.2011 02:14 -2,6 C 81 % 1026,5 hPa 0,0 l/m 4,8 km/h (1 Bft) O-SO 110 0 min 0 W/m -5,4 C -2,6 C 4,8 km/h (1 Bft)
28.01.2011 02:19 -2,6 C 81 % 1026,5 hPa 0,0 l/m 8,9 km/h (2 Bft) O 100 0 min 0 W/m -5,4 C -5,3 C 8,9 km/h (2 Bft)
28.01.2011 02:24 -2,6 C 81 % 1026,5 hPa 0,0 l/m 7,9 km/h (2 Bft) O-SO 115 0 min 0 W/m -5,4 C -4,3 C 7,9 km/h (2 Bft)
28.01.2011 02:30 -2,6 C 81 % 1026,5 hPa 0,0 l/m 1,9 km/h (1 Bft) O 95 0 min 0 W/m -5,4 C -2,6 C 1,9 km/h (1 Bft)
28.01.2011 02:35 -2,6 C 81 % 1026,5 hPa 0,0 l/m 4,7 km/h (1 Bft) O-SO 110 0 min 0 W/m -5,4 C -2,6 C 4,7 km/h (1 Bft)
28.01.2011 02:39 -2,6 C 81 % 1026,5 hPa 0,0 l/m 3,7 km/h (1 Bft) O-SO 110 0 min 0 W/m -5,4 C -2,6 C 3,7 km/h (1 Bft)
28.01.2011 02:44 -2,6 C 81 % 1026,5 hPa 0,0 l/m 5,2 km/h (1 Bft) O-SO 110 0 min 0 W/m -5,4 C -2,6 C 5,2 km/h (1 Bft)
28.01.2011 02:49 -2,6 C 81 % 1026,5 hPa 0,0 l/m 0,4 km/h (0 Bft) O-SO 110 0 min 0 W/m -5,4 C -2,6 C 0,4 km/h (0 Bft)
28.01.2011 02:54 -2,6 C 81 % 1026,5 hPa 0,0 l/m 4,3 km/h (1 Bft) O-SO 110 0 min 0 W/m -5,4 C -2,6 C 4,3 km/h (1 Bft)
28.01.2011 02:59 -2,6 C 81 % 1026,5 hPa 0,0 l/m 3,7 km/h (1 Bft) O 95 0 min 0 W/m -5,4 C -2,6 C 3,7 km/h (1 Bft)
28.01.2011 03:04 -2,7 C 81 % 1026,5 hPa 0,0 l/m 3,1 km/h (1 Bft) O 95 0 min 0 W/m -5,5 C -2,7 C 3,1 km/h (1 Bft)
28.01.2011 03:09 -2,7 C 81 % 1027,5 hPa 0,0 l/m 0,7 km/h (0 Bft) O 95 0 min 0 W/m -5,5 C -2,7 C 0,7 km/h (0 Bft)
28.01.2011 03:14 -2,7 C 81 % 1027,5 hPa 0,0 l/m 0,6 km/h (0 Bft) O 95 0 min 0 W/m -5,5 C -2,7 C 0,6 km/h (0 Bft)
28.01.2011 03:19 -2,7 C 81 % 1026,5 hPa 0,0 l/m 3,0 km/h (1 Bft) O 95 0 min 0 W/m -5,5 C -2,7 C 3,0 km/h (1 Bft)
28.01.2011 03:24 -2,8 C 81 % 1026,5 hPa 0,0 l/m 1,1 km/h (1 Bft) O 100 0 min 0 W/m -5,6 C -2,8 C 1,1 km/h (1 Bft)
28.01.2011 03:29 -2,8 C 81 % 1026,5 hPa 0,0 l/m 0,3 km/h (0 Bft) O 100 0 min 0 W/m -5,6 C -2,8 C 0,3 km/h (0 Bft)
28.01.2011 03:34 -2,8 C 81 % 1026,5 hPa 0,0 l/m 0,0 km/h (0 Bft) O 100 0 min 0 W/m -5,6 C -2,8 C 0,0 km/h (0 Bft)
28.01.2011 03:39 -2,8 C 81 % 1026,5 hPa 0,0 l/m 0,4 km/h (0 Bft) O 100 0 min 0 W/m -5,6 C -2,8 C 0,4 km/h (0 Bft)
28.01.2011 03:45 -2,8 C 81 % 1026,5 hPa 0,0 l/m 0,1 km/h (0 Bft) O 100 0 min 0 W/m -5,6 C -2,8 C 0,1 km/h (0 Bft)
28.01.2011 03:50 -2,8 C 81 % 1026,5 hPa 0,0 l/m 1,1 km/h (1 Bft) O 100 0 min 0 W/m -5,6 C -2,8 C 1,1 km/h (1 Bft)
28.01.2011 03:54 -2,8 C 81 % 1026,5 hPa 0,0 l/m 0,7 km/h (0 Bft) O 100 0 min 0 W/m -5,6 C -2,8 C 0,7 km/h (0 Bft)
28.01.2011 03:59 -2,8 C 82 % 1026,5 hPa 0,0 l/m 2,4 km/h (1 Bft) O 100 0 min 0 W/m -5,4 C -2,8 C 2,4 km/h (1 Bft)
28.01.2011 04:04 -2,9 C 81 % 1026,5 hPa 0,0 l/m 6,1 km/h (2 Bft) O 100 0 min 0 W/m -5,7 C -2,9 C 6,1 km/h (2 Bft)
28.01.2011 04:09 -2,9 C 82 % 1026,5 hPa 0,0 l/m 0,4 km/h (0 Bft) O 100 0 min 0 W/m -5,5 C -2,9 C 0,4 km/h (0 Bft)
28.01.2011 04:14 -2,9 C 82 % 1027,5 hPa 0,0 l/m 0,3 km/h (0 Bft) O 100 0 min 0 W/m -5,5 C -2,9 C 0,3 km/h (0 Bft)
28.01.2011 04:20 -2,9 C 82 % 1027,5 hPa 0,0 l/m 0,0 km/h (0 Bft) O 100 0 min 0 W/m -5,5 C -2,9 C 0,0 km/h (0 Bft)
28.01.2011 04:24 -2,9 C 82 % 1026,5 hPa 0,0 l/m 3,8 km/h (1 Bft) O 100 0 min 0 W/m -5,5 C -2,9 C 3,8 km/h (1 Bft)
28.01.2011 04:29 -2,9 C 82 % 1026,5 hPa 0,0 l/m 3,7 km/h (1 Bft) O 100 0 min 0 W/m -5,5 C -2,9 C 3,7 km/h (1 Bft)
28.01.2011 04:34 -2,9 C 82 % 1026,5 hPa 0,0 l/m 4,9 km/h (1 Bft) O 100 0 min 0 W/m -5,5 C -2,9 C 4,9 km/h (1 Bft)
28.01.2011 04:39 -2,9 C 82 % 1026,5 hPa 0,0 l/m 3,9 km/h (1 Bft) O-SO 105 0 min 0 W/m -5,5 C -2,9 C 3,9 km/h (1 Bft)
28.01.2011 04:44 -2,9 C 82 % 1027,5 hPa 0,0 l/m 5,7 km/h (2 Bft) O-SO 105 0 min 0 W/m -5,5 C -2,9 C 5,7 km/h (2 Bft)
28.01.2011 04:49 -2,8 C 82 % 1027,5 hPa 0,0 l/m 5,5 km/h (2 Bft) O-SO 105 0 min 0 W/m -5,4 C -2,8 C 5,5 km/h (2 Bft)
28.01.2011 04:54 -2,8 C 82 % 1027,5 hPa 0,0 l/m 5,1 km/h (1 Bft) O-SO 105 0 min 0 W/m -5,4 C -2,8 C 5,1 km/h (1 Bft)
28.01.2011 05:00 -2,8 C 82 % 1026,5 hPa 0,0 l/m 0,4 km/h (0 Bft) O 100 0 min 0 W/m -5,4 C -2,8 C 0,4 km/h (0 Bft)
28.01.2011 05:04 -2,8 C 82 % 1026,5 hPa 0,0 l/m 0,5 km/h (0 Bft) O 100 0 min 0 W/m -5,4 C -2,8 C 0,5 km/h (0 Bft)
28.01.2011 05:09 -2,8 C 82 % 1026,5 hPa 0,0 l/m 2,2 km/h (1 Bft) O 100 0 min 0 W/m -5,4 C -2,8 C 2,2 km/h (1 Bft)
28.01.2011 05:14 -2,8 C 82 % 1026,5 hPa 0,0 l/m 0,3 km/h (0 Bft) O 100 0 min 0 W/m -5,4 C -2,8 C 0,3 km/h (0 Bft)
28.01.2011 05:19 -2,8 C 82 % 1026,5 hPa 0,0 l/m 0,1 km/h (0 Bft) O 100 0 min 0 W/m -5,4 C -2,8 C 0,1 km/h (0 Bft)
28.01.2011 05:24 -2,8 C 82 % 1026,5 hPa 0,0 l/m 1,0 km/h (0 Bft) O 100 0 min 0 W/m -5,4 C -2,8 C 1,0 km/h (0 Bft)
28.01.2011 05:30 -2,9 C 83 % 1026,5 hPa 0,0 l/m 0,0 km/h (0 Bft) O 100 0 min 0 W/m -5,4 C -2,9 C 0,0 km/h (0 Bft)
28.01.2011 05:35 -2,8 C 83 % 1026,5 hPa 0,0 l/m 0,0 km/h (0 Bft) O 100 0 min 0 W/m -5,3 C -2,8 C 0,0 km/h (0 Bft)
28.01.2011 05:39 -2,8 C 83 % 1026,5 hPa 0,0 l/m 0,1 km/h (0 Bft) O 100 0 min 0 W/m -5,3 C -2,8 C 0,1 km/h (0 Bft)
28.01.2011 05:44 -2,9 C 83 % 1026,5 hPa 0,0 l/m 0,0 km/h (0 Bft) O 100 0 min 0 W/m -5,4 C -2,9 C 0,0 km/h (0 Bft)
28.01.2011 05:49 -2,9 C 83 % 1026,5 hPa 0,0 l/m 0,0 km/h (0 Bft) O 100 0 min 0 W/m -5,4 C -2,9 C 0,0 km/h (0 Bft)
28.01.2011 05:54 -3,0 C 83 % 1026,5 hPa 0,0 l/m 0,0 km/h (0 Bft) O 100 0 min 0 W/m -5,5 C -3,0 C 0,0 km/h (0 Bft)
28.01.2011 05:59 -3,0 C 83 % 1026,5 hPa 0,0 l/m 0,0 km/h (0 Bft) O 100 0 min 0 W/m -5,5 C -3,0 C 0,0 km/h (0 Bft)
28.01.2011 06:04 -3,0 C 83 % 1026,5 hPa 0,0 l/m 1,9 km/h (1 Bft) O 100 0 min 0 W/m -5,5 C -3,0 C 1,9 km/h (1 Bft)
28.01.2011 06:09 -3,0 C 83 % 1026,5 hPa 0,0 l/m 3,1 km/h (1 Bft) O 100 0 min 0 W/m -5,5 C -3,0 C 3,1 km/h (1 Bft)
28.01.2011 06:14 -3,1 C 83 % 1026,5 hPa 0,0 l/m 0,7 km/h (0 Bft) O 100 0 min 0 W/m -5,6 C -3,1 C 0,7 km/h (0 Bft)
28.01.2011 06:19 -3,1 C 83 % 1026,5 hPa 0,0 l/m 0,0 km/h (0 Bft) O 100 0 min 0 W/m -5,6 C -3,1 C 0,0 km/h (0 Bft)
28.01.2011 06:24 -3,1 C 83 % 1026,5 hPa 0,0 l/m 3,4 km/h (1 Bft) O 100 0 min 0 W/m -5,6 C -3,1 C 3,4 km/h (1 Bft)
28.01.2011 06:29 -3,1 C 83 % 1026,5 hPa 0,0 l/m 2,2 km/h (1 Bft) O 100 0 min 0 W/m -5,6 C -3,1 C 2,2 km/h (1 Bft)
28.01.2011 06:34 -3,1 C 83 % 1026,5 hPa 0,0 l/m 0,0 km/h (0 Bft) O 100 0 min 0 W/m -5,6 C -3,1 C 0,0 km/h (0 Bft)
28.01.2011 06:40 -3,1 C 83 % 1026,5 hPa 0,0 l/m 0,0 km/h (0 Bft) O 100 0 min 0 W/m -5,6 C -3,1 C 0,0 km/h (0 Bft)
28.01.2011 06:44 -3,0 C 83 % 1026,5 hPa 0,0 l/m 2,8 km/h (1 Bft) O 100 0 min 0 W/m -5,5 C -3,0 C 2,8 km/h (1 Bft)
28.01.2011 06:49 -3,1 C 83 % 1026,5 hPa 0,0 l/m 0,0 km/h (0 Bft) O 100 0 min 0 W/m -5,6 C -3,1 C 0,0 km/h (0 Bft)
28.01.2011 06:54 -3,1 C 83 % 1026,5 hPa 0,0 l/m 0,0 km/h (0 Bft) O 100 0 min 0 W/m -5,6 C -3,1 C 0,0 km/h (0 Bft)
28.01.2011 06:59 -3,1 C 83 % 1026,5 hPa 0,0 l/m 0,0 km/h (0 Bft) O 100 0 min 0 W/m -5,6 C -3,1 C 0,0 km/h (0 Bft)
28.01.2011 07:05 -3,1 C 83 % 1026,5 hPa 0,0 l/m 0,0 km/h (0 Bft) O 100 0 min 0 W/m -5,6 C -3,1 C 0,0 km/h (0 Bft)
28.01.2011 07:09 -3,1 C 83 % 1026,5 hPa 0,0 l/m 0,0 km/h (0 Bft) O 100 0 min 0 W/m -5,6 C -3,1 C 0,0 km/h (0 Bft)
28.01.2011 07:14 -3,2 C 82 % 1026,5 hPa 0,0 l/m 0,0 km/h (0 Bft) O 100 0 min 0 W/m -5,8 C -3,2 C 0,0 km/h (0 Bft)
28.01.2011 07:19 -3,2 C 83 % 1026,5 hPa 0,0 l/m 0,0 km/h (0 Bft) O 100 0 min 0 W/m -5,7 C -3,2 C 0,0 km/h (0 Bft)
28.01.2011 07:24 -3,3 C 83 % 1026,5 hPa 0,0 l/m 0,0 km/h (0 Bft) O 100 0 min 0 W/m -5,8 C -3,3 C 0,0 km/h (0 Bft)
28.01.2011 07:29 -3,4 C 83 % 1026,5 hPa 0,0 l/m 0,0 km/h (0 Bft) O 100 0 min 0 W/m -5,9 C -3,4 C 0,0 km/h (0 Bft)
28.01.2011 07:34 -3,4 C 83 % 1026,5 hPa 0,0 l/m 0,0 km/h (0 Bft) O 100 0 min 0 W/m -5,9 C -3,4 C 0,0 km/h (0 Bft)
28.01.2011 07:39 -3,4 C 83 % 1026,5 hPa 0,0 l/m 0,0 km/h (0 Bft) O 100 0 min 0 W/m -5,9 C -3,4 C 0,0 km/h (0 Bft)
28.01.2011 07:45 -3,3 C 83 % 1026,5 hPa 0,0 l/m 0,0 km/h (0 Bft) O 100 0 min 0 W/m -5,8 C -3,3 C 0,0 km/h (0 Bft)
28.01.2011 07:49 -3,3 C 83 % 1026,5 hPa 0,0 l/m 0,3 km/h (0 Bft) O 100 0 min 0 W/m -5,8 C -3,3 C 0,3 km/h (0 Bft)
28.01.2011 07:54 -3,3 C 83 % 1026,5 hPa 0,0 l/m 2,2 km/h (1 Bft) O 100 0 min 0 W/m -5,8 C -3,3 C 2,2 km/h (1 Bft)
28.01.2011 07:59 -3,3 C 83 % 1026,5 hPa 0,0 l/m 2,8 km/h (1 Bft) O 100 0 min 0 W/m -5,8 C -3,3 C 2,8 km/h (1 Bft)
28.01.2011 08:04 -3,3 C 83 % 1026,5 hPa 0,0 l/m 2,7 km/h (1 Bft) O 100 0 min 0 W/m -5,8 C -3,3 C 2,7 km/h (1 Bft)
28.01.2011 08:10 -3,3 C 83 % 1026,5 hPa 0,0 l/m 2,7 km/h (1 Bft) O 100 0 min 0 W/m -5,8 C -3,3 C 2,7 km/h (1 Bft)
28.01.2011 08:14 -3,3 C 83 % 1027,5 hPa 0,0 l/m 0,3 km/h (0 Bft) O 100 0 min 0 W/m -5,8 C -3,3 C 0,3 km/h (0 Bft)
28.01.2011 08:19 -3,4 C 83 % 1027,5 hPa 0,0 l/m 0,0 km/h (0 Bft) O 100 0 min 0 W/m -5,9 C -3,4 C 0,0 km/h (0 Bft)
28.01.2011 08:24 -3,4 C 83 % 1027,5 hPa 0,0 l/m 0,0 km/h (0 Bft) O 100 0 min 0 W/m -5,9 C -3,4 C 0,0 km/h (0 Bft)
28.01.2011 08:29 -3,4 C 83 % 1027,5 hPa 0,0 l/m 0,2 km/h (0 Bft) O 100 0 min 0 W/m -5,9 C -3,4 C 0,2 km/h (0 Bft)
28.01.2011 08:34 -3,4 C 83 % 1027,5 hPa 0,0 l/m 1,0 km/h (0 Bft) O 100 0 min 0 W/m -5,9 C -3,4 C 1,0 km/h (0 Bft)
28.01.2011 08:39 -3,3 C 83 % 1027,5 hPa 0,0 l/m 1,0 km/h (0 Bft) O 100 0 min 0 W/m -5,8 C -3,3 C 1,0 km/h (0 Bft)
28.01.2011 08:44 -3,4 C 83 % 1027,5 hPa 0,0 l/m 1,0 km/h (0 Bft) O 100 0 min 0 W/m -5,9 C -3,4 C 1,0 km/h (0 Bft)
28.01.2011 08:50 -3,3 C 83 % 1027,5 hPa 0,0 l/m 0,0 km/h (0 Bft) O 100 0 min 0 W/m -5,8 C -3,3 C 0,0 km/h (0 Bft)
28.01.2011 08:54 -3,4 C 83 % 1027,5 hPa 0,0 l/m 8,8 km/h (2 Bft) O 100 0 min 0 W/m -5,9 C -6,1 C 8,8 km/h (2 Bft)
28.01.2011 08:59 -3,3 C 83 % 1027,5 hPa 0,0 l/m 0,4 km/h (0 Bft) O 100 0 min 0 W/m -5,8 C -3,3 C 0,4 km/h (0 Bft)
28.01.2011 09:04 -3,3 C 83 % 1027,5 hPa 0,0 l/m 3,6 km/h (1 Bft) O 100 0 min 0 W/m -5,8 C -3,3 C 3,6 km/h (1 Bft)
28.01.2011 09:09 -3,2 C 83 % 1027,5 hPa 0,0 l/m 3,9 km/h (1 Bft) O 100 0 min 0 W/m -5,7 C -3,2 C 3,9 km/h (1 Bft)
28.01.2011 09:15 -3,2 C 83 % 1027,5 hPa 0,0 l/m 0,4 km/h (0 Bft) O-SO 105 0 min 0 W/m -5,7 C -3,2 C 0,4 km/h (0 Bft)
28.01.2011 09:19 -3,2 C 83 % 1027,5 hPa 0,0 l/m 1,0 km/h (0 Bft) O 100 0 min 0 W/m -5,7 C -3,2 C 1,0 km/h (0 Bft)
28.01.2011 09:24 -3,2 C 83 % 1027,5 hPa 0,0 l/m 4,3 km/h (1 Bft) O 100 0 min 0 W/m -5,7 C -3,2 C 4,3 km/h (1 Bft)
28.01.2011 09:29 -3,2 C 83 % 1027,5 hPa 0,0 l/m 3,4 km/h (1 Bft) O 100 0 min 0 W/m -5,7 C -3,2 C 3,4 km/h (1 Bft)
28.01.2011 09:34 -3,1 C 83 % 1027,5 hPa 0,0 l/m 3,5 km/h (1 Bft) O 100 0 min 0 W/m -5,6 C -3,1 C 3,5 km/h (1 Bft)
28.01.2011 09:39 -3,0 C 83 % 1027,5 hPa 0,0 l/m 2,2 km/h (1 Bft) O 100 0 min 0 W/m -5,5 C -3,0 C 2,2 km/h (1 Bft)
28.01.2011 09:44 -3,0 C 83 % 1027,5 hPa 0,0 l/m 5,9 km/h (2 Bft) O 100 0 min 0 W/m -5,5 C -3,0 C 5,9 km/h (2 Bft)
28.01.2011 09:49 -3,0 C 83 % 1027,5 hPa 0,0 l/m 5,9 km/h (2 Bft) O 100 0 min 0 W/m -5,5 C -3,0 C 5,9 km/h (2 Bft)
28.01.2011 09:55 -2,8 C 83 % 1027,5 hPa 0,0 l/m 5,9 km/h (2 Bft) O 100 0 min 0 W/m -5,3 C -2,8 C 5,9 km/h (2 Bft)
28.01.2011 09:59 -2,7 C 83 % 1027,5 hPa 0,0 l/m 5,9 km/h (2 Bft) O 100 0 min 0 W/m -5,2 C -2,7 C 5,9 km/h (2 Bft)
28.01.2011 10:04 -2,6 C 83 % 1027,5 hPa 0,0 l/m 5,9 km/h (2 Bft) O 100 0 min 0 W/m -5,1 C -2,6 C 5,9 km/h (2 Bft)
28.01.2011 10:09 -2,6 C 83 % 1027,5 hPa 0,0 l/m 5,9 km/h (2 Bft) O 100 0 min 0 W/m -5,1 C -2,6 C 5,9 km/h (2 Bft)
28.01.2011 10:14 -2,5 C 83 % 1027,5 hPa 0,0 l/m 5,9 km/h (2 Bft) O 100 0 min 0 W/m -5,0 C -2,5 C 5,9 km/h (2 Bft)
28.01.2011 10:20 -2,5 C 83 % 1027,5 hPa 0,0 l/m 5,9 km/h (2 Bft) O 100 0 min 0 W/m -5,0 C -2,5 C 5,9 km/h (2 Bft)
28.01.2011 10:24 -2,4 C 84 % 1027,5 hPa 0,0 l/m 5,9 km/h (2 Bft) O 100 0 min 0 W/m -4,7 C -2,4 C 5,9 km/h (2 Bft)
28.01.2011 10:29 -2,2 C 84 % 1027,5 hPa 0,0 l/m 5,9 km/h (2 Bft) O 100 0 min 0 W/m -4,5 C -2,2 C 5,9 km/h (2 Bft)
28.01.2011 10:34 -2,2 C 84 % 1027,5 hPa 0,0 l/m 5,9 km/h (2 Bft) O 100 0 min 0 W/m -4,5 C -2,2 C 5,9 km/h (2 Bft)
28.01.2011 10:39 -1,9 C 84 % 1027,5 hPa 0,0 l/m 5,9 km/h (2 Bft) O 100 0 min 0 W/m -4,2 C -1,9 C 5,9 km/h (2 Bft)
28.01.2011 10:44 -1,7 C 83 % 1027,5 hPa 0,0 l/m 1,8 km/h (1 Bft) O 90 0 min 0 W/m -4,2 C -1,7 C 1,8 km/h (1 Bft)
28.01.2011 10:49 -1,4 C 83 % 1027,5 hPa 0,0 l/m 3,2 km/h (1 Bft) O 85 0 min 0 W/m -3,9 C -1,4 C 3,2 km/h (1 Bft)
28.01.2011 10:55 -1,4 C 83 % 1027,5 hPa 0,0 l/m 7,8 km/h (2 Bft) O-SO 105 0 min 0 W/m -3,9 C -2,9 C 7,8 km/h (2 Bft)
28.01.2011 10:59 -1,2 C 83 % 1027,5 hPa 0,0 l/m 3,8 km/h (1 Bft) O-SO 105 0 min 0 W/m -3,7 C -1,2 C 3,8 km/h (1 Bft)
28.01.2011 11:04 -1,0 C 83 % 1027,5 hPa 0,0 l/m 6,1 km/h (2 Bft) O-SO 105 0 min 0 W/m -3,5 C -1,0 C 6,1 km/h (2 Bft)
28.01.2011 11:09 -0,9 C 82 % 1027,5 hPa 0,0 l/m 6,1 km/h (2 Bft) O 90 0 min 0 W/m -3,6 C -0,9 C 6,1 km/h (2 Bft)
28.01.2011 11:14 0,6 C 86 % 1027,5 hPa 0,0 l/m 13,8 km/h (3 Bft) O-SO 105 0 min 0 W/m -1,5 C -5,5 C 13,8 km/h (3 Bft)
28.01.2011 11:20 0,5 C 79 % 1027,5 hPa 0,0 l/m 10,0 km/h (2 Bft) SO 140 0 min 0 W/m -2,7 C -2,9 C 10,0 km/h (2 Bft)
28.01.2011 11:25 0,3 C 79 % 1027,5 hPa 0,0 l/m 5,7 km/h (2 Bft) O 90 0 min 0 W/m -2,9 C 0,3 C 5,7 km/h (2 Bft)
28.01.2011 11:29 0,1 C 80 % 1027,5 hPa 0,0 l/m 1,6 km/h (1 Bft) O-SO 120 0 min 0 W/m -2,9 C 0,1 C 1,6 km/h (1 Bft)
28.01.2011 11:34 -0,2 C 80 % 1027,5 hPa 0,0 l/m 1,6 km/h (1 Bft) O-SO 120 0 min 0 W/m -3,2 C -0,2 C 1,6 km/h (1 Bft)
28.01.2011 11:39 -0,2 C 80 % 1027,5 hPa 0,0 l/m 9,0 km/h (2 Bft) O 90 0 min 0 W/m -3,2 C -2,8 C 9,0 km/h (2 Bft)
28.01.2011 11:44 -0,3 C 81 % 1027,5 hPa 0,0 l/m 10,2 km/h (2 Bft) O-NO 60 0 min 0 W/m -3,2 C -3,9 C 10,2 km/h (2 Bft)
28.01.2011 11:49 -0,3 C 80 % 1027,5 hPa 0,0 l/m 6,5 km/h (2 Bft) SO 130 0 min 0 W/m -3,3 C -0,4 C 6,5 km/h (2 Bft)
28.01.2011 11:54 -0,2 C 80 % 1027,5 hPa 0,0 l/m 6,1 km/h (2 Bft) O-SO 110 0 min 0 W/m -3,2 C -0,2 C 6,1 km/h (2 Bft)
28.01.2011 12:00 -0,2 C 80 % 1027,5 hPa 0,0 l/m 6,1 km/h (2 Bft) O-SO 110 0 min 0 W/m -3,2 C -0,2 C 6,1 km/h (2 Bft)
28.01.2011 12:04 0,0 C 80 % 1027,5 hPa 0,0 l/m 6,1 km/h (2 Bft) O-SO 110 0 min 0 W/m -3,0 C 0,0 C 6,1 km/h (2 Bft)
28.01.2011 12:09 0,2 C 79 % 1027,5 hPa 0,0 l/m 8,2 km/h (2 Bft) O-SO 120 0 min 0 W/m -3,0 C -1,6 C 8,2 km/h (2 Bft)
28.01.2011 12:14 0,2 C 79 % 1027,5 hPa 0,0 l/m 10,5 km/h (2 Bft) SO 125 0 min 0 W/m -3,0 C -3,6 C 10,5 km/h (2 Bft)
28.01.2011 12:19 0,3 C 79 % 1027,5 hPa 0,0 l/m 11,5 km/h (2 Bft) SO 140 0 min 0 W/m -2,9 C -4,3 C 11,5 km/h (2 Bft)
28.01.2011 12:25 0,3 C 78 % 1027,5 hPa 0,0 l/m 10,4 km/h (2 Bft) S-SO 150 0 min 0 W/m -3,1 C -3,4 C 10,4 km/h (2 Bft)
28.01.2011 12:29 0,4 C 78 % 1027,5 hPa 0,0 l/m 12,8 km/h (3 Bft) O-SO 105 0 min 0 W/m -3,0 C -5,1 C 12,8 km/h (3 Bft)
28.01.2011 12:34 0,5 C 77 % 1026,5 hPa 0,0 l/m 10,6 km/h (2 Bft) O-NO 70 0 min 0 W/m -3,1 C -3,4 C 10,6 km/h (2 Bft)
28.01.2011 12:39 0,5 C 78 % 1026,5 hPa 0,0 l/m 12,1 km/h (2 Bft) O 90 0 min 0 W/m -2,9 C -4,5 C 12,1 km/h (2 Bft)
28.01.2011 12:44 0,6 C 77 % 1026,5 hPa 0,0 l/m 12,0 km/h (2 Bft) O-SO 110 0 min 0 W/m -3,0 C -4,3 C 12,0 km/h (2 Bft)
28.01.2011 12:49 0,7 C 78 % 1026,5 hPa 0,0 l/m 7,7 km/h (2 Bft) SO 135 0 min 0 W/m -2,7 C -0,6 C 7,7 km/h (2 Bft)
28.01.2011 12:54 0,7 C 77 % 1026,5 hPa 0,0 l/m 6,7 km/h (2 Bft) O-SO 105 0 min 0 W/m -2,9 C 0,4 C 6,7 km/h (2 Bft)
28.01.2011 13:00 0,9 C 77 % 1026,5 hPa 0,0 l/m 11,1 km/h (2 Bft) SO 135 0 min 0 W/m -2,7 C -3,3 C 11,1 km/h (2 Bft)
28.01.2011 13:04 0,9 C 76 % 1026,5 hPa 0,0 l/m 10,7 km/h (2 Bft) O-NO 70 0 min 0 W/m -2,8 C -3,0 C 10,7 km/h (2 Bft)
28.01.2011 13:09 0,9 C 76 % 1026,5 hPa 0,0 l/m 9,8 km/h (2 Bft) O 85 0 min 0 W/m -2,8 C -2,3 C 9,8 km/h (2 Bft)
28.01.2011 13:14 0,9 C 75 % 1026,5 hPa 0,0 l/m 9,6 km/h (2 Bft) O 85 0 min 0 W/m -3,0 C -2,1 C 9,6 km/h (2 Bft)
28.01.2011 13:20 1,0 C 75 % 1026,5 hPa 0,0 l/m 12,3 km/h (2 Bft) O 95 0 min 0 W/m -2,9 C -4,1 C 12,3 km/h (2 Bft)
28.01.2011 13:25 1,0 C 74 % 1026,5 hPa 0,0 l/m 11,0 km/h (2 Bft) O 80 0 min 0 W/m -3,1 C -3,1 C 11,0 km/h (2 Bft)
28.01.2011 13:29 1,1 C 73 % 1026,5 hPa 0,0 l/m 14,8 km/h (3 Bft) O-NO 65 0 min 0 W/m -3,2 C -5,5 C 14,8 km/h (3 Bft)
28.01.2011 13:34 1,1 C 73 % 1026,5 hPa 0,0 l/m 10,1 km/h (2 Bft) O-NO 70 0 min 0 W/m -3,2 C -2,3 C 10,1 km/h (2 Bft)
28.01.2011 13:39 1,2 C 74 % 1026,5 hPa 0,0 l/m 13,6 km/h (3 Bft) O 80 0 min 0 W/m -2,9 C -4,7 C 13,6 km/h (3 Bft)
28.01.2011 13:44 1,2 C 72 % 1026,5 hPa 0,0 l/m 4,8 km/h (1 Bft) O-SO 105 0 min 0 W/m -3,3 C 1,2 C 4,8 km/h (1 Bft)
28.01.2011 13:49 1,2 C 71 % 1026,5 hPa 0,0 l/m 14,6 km/h (3 Bft) O-SO 105 0 min 0 W/m -3,5 C -5,3 C 14,6 km/h (3 Bft)
28.01.2011 13:55 1,2 C 71 % 1026,5 hPa 0,0 l/m 8,4 km/h (2 Bft) SO 125 0 min 0 W/m -3,5 C -0,8 C 8,4 km/h (2 Bft)
28.01.2011 13:59 1,2 C 71 % 1026,5 hPa 0,0 l/m 14,0 km/h (3 Bft) O-SO 105 0 min 0 W/m -3,5 C -4,9 C 14,0 km/h (3 Bft)
28.01.2011 14:04 1,4 C 72 % 1026,5 hPa 0,0 l/m 12,5 km/h (2 Bft) O-SO 110 0 min 0 W/m -3,1 C -3,7 C 12,5 km/h (2 Bft)
28.01.2011 14:09 1,4 C 72 % 1026,5 hPa 0,0 l/m 6,9 km/h (2 Bft) O-SO 110 0 min 0 W/m -3,1 C 0,9 C 6,9 km/h (2 Bft)
28.01.2011 14:14 1,4 C 71 % 1026,5 hPa 0,0 l/m 11,0 km/h (2 Bft) O 100 0 min 0 W/m -3,3 C -2,7 C 11,0 km/h (2 Bft)
28.01.2011 14:20 1,3 C 70 % 1026,5 hPa 0,0 l/m 7,7 km/h (2 Bft) O-NO 65 0 min 0 W/m -3,6 C 0,0 C 7,7 km/h (2 Bft)
28.01.2011 14:24 1,3 C 71 % 1026,5 hPa 0,0 l/m 7,9 km/h (2 Bft) O 100 0 min 0 W/m -3,4 C -0,2 C 7,9 km/h (2 Bft)
28.01.2011 14:29 1,2 C 70 % 1026,5 hPa 0,0 l/m 13,5 km/h (3 Bft) O 95 0 min 0 W/m -3,7 C -4,6 C 13,5 km/h (3 Bft)
28.01.2011 14:34 1,2 C 70 % 1026,5 hPa 0,0 l/m 9,8 km/h (2 Bft) O 85 0 min 0 W/m -3,7 C -2,0 C 9,8 km/h (2 Bft)
28.01.2011 14:39 1,2 C 71 % 1026,5 hPa 0,0 l/m 8,5 km/h (2 Bft) O 90 0 min 0 W/m -3,5 C -0,8 C 8,5 km/h (2 Bft)
28.01.2011 14:44 1,2 C 71 % 1026,5 hPa 0,0 l/m 9,9 km/h (2 Bft) O 100 0 min 0 W/m -3,5 C -2,0 C 9,9 km/h (2 Bft)
28.01.2011 14:49 1,2 C 70 % 1025,5 hPa 0,0 l/m 9,4 km/h (2 Bft) O-SO 115 0 min 0 W/m -3,7 C -1,6 C 9,4 km/h (2 Bft)
28.01.2011 14:55 1,2 C 70 % 1025,5 hPa 0,0 l/m 13,9 km/h (3 Bft) O 100 0 min 0 W/m -3,7 C -4,9 C 13,9 km/h (3 Bft)
28.01.2011 14:59 1,1 C 70 % 1025,5 hPa 0,0 l/m 7,8 km/h (2 Bft) O-NO 70 0 min 0 W/m -3,7 C -0,3 C 7,8 km/h (2 Bft)
28.01.2011 15:04 1,0 C 70 % 1025,5 hPa 0,0 l/m 12,7 km/h (3 Bft) O-NO 70 0 min 0 W/m -3,8 C -4,3 C 12,7 km/h (3 Bft)
28.01.2011 15:09 0,9 C 71 % 1025,5 hPa 0,0 l/m 11,6 km/h (2 Bft) O-NO 75 0 min 0 W/m -3,7 C -3,7 C 11,6 km/h (2 Bft)
28.01.2011 15:14 0,9 C 70 % 1025,5 hPa 0,0 l/m 10,3 km/h (2 Bft) O-NO 70 0 min 0 W/m -3,9 C -2,7 C 10,3 km/h (2 Bft)
28.01.2011 15:20 0,8 C 71 % 1025,5 hPa 0,0 l/m 11,3 km/h (2 Bft) O-SO 110 0 min 0 W/m -3,8 C -3,6 C 11,3 km/h (2 Bft)
28.01.2011 15:24 0,9 C 71 % 1025,5 hPa 0,0 l/m 8,7 km/h (2 Bft) O 100 0 min 0 W/m -3,7 C -1,3 C 8,7 km/h (2 Bft)
28.01.2011 15:29 0,9 C 71 % 1025,5 hPa 0,0 l/m 4,6 km/h (1 Bft) O-NO 70 0 min 0 W/m -3,7 C 0,9 C 4,6 km/h (1 Bft)
28.01.2011 15:34 0,8 C 71 % 1025,5 hPa 0,0 l/m 11,9 km/h (2 Bft) O 100 0 min 0 W/m -3,8 C -4,0 C 11,9 km/h (2 Bft)
28.01.2011 15:39 0,7 C 71 % 1025,5 hPa 0,0 l/m 10,1 km/h (2 Bft) O 95 0 min 0 W/m -3,9 C -2,8 C 10,1 km/h (2 Bft)
28.01.2011 15:44 0,6 C 71 % 1025,5 hPa 0,0 l/m 10,3 km/h (2 Bft) O 80 0 min 0 W/m -4,0 C -3,0 C 10,3 km/h (2 Bft)
28.01.2011 15:49 0,7 C 71 % 1025,5 hPa 0,0 l/m 16,6 km/h (3 Bft) O-SO 115 0 min 0 W/m -3,9 C -7,0 C 16,6 km/h (3 Bft)
28.01.2011 15:55 0,6 C 71 % 1025,5 hPa 0,0 l/m 10,0 km/h (2 Bft) O-SO 115 0 min 0 W/m -4,0 C -2,8 C 10,0 km/h (2 Bft)
28.01.2011 15:59 0,5 C 71 % 1025,5 hPa 0,0 l/m 6,1 km/h (2 Bft) O 100 0 min 0 W/m -4,1 C 0,5 C 6,1 km/h (2 Bft)
28.01.2011 16:04 0,4 C 71 % 1025,5 hPa 0,0 l/m 6,0 km/h (2 Bft) SO 140 0 min 0 W/m -4,2 C 0,4 C 6,0 km/h (2 Bft)
28.01.2011 16:09 0,4 C 71 % 1025,5 hPa 0,0 l/m 9,6 km/h (2 Bft) SO 130 0 min 0 W/m -4,2 C -2,7 C 9,6 km/h (2 Bft)
28.01.2011 16:15 0,3 C 72 % 1025,5 hPa 0,0 l/m 8,5 km/h (2 Bft) SO 130 0 min 0 W/m -4,1 C -1,8 C 8,5 km/h (2 Bft)
28.01.2011 16:19 0,3 C 72 % 1025,5 hPa 0,0 l/m 10,8 km/h (2 Bft) SO 125 0 min 0 W/m -4,1 C -3,8 C 10,8 km/h (2 Bft)
28.01.2011 16:24 0,3 C 72 % 1025,5 hPa 0,0 l/m 10,3 km/h (2 Bft) SO 135 0 min 0 W/m -4,1 C -3,4 C 10,3 km/h (2 Bft)
28.01.2011 16:29 0,2 C 72 % 1025,5 hPa 0,0 l/m 9,8 km/h (2 Bft) SO 135 0 min 0 W/m -4,2 C -3,1 C 9,8 km/h (2 Bft)
28.01.2011 16:34 0,1 C 72 % 1016,5 hPa 0,0 l/m 12,3 km/h (2 Bft) O 100 0 min 0 W/m -4,3 C -5,1 C 12,3 km/h (2 Bft)
28.01.2011 16:39 0,0 C 72 % 1016,5 hPa 0,0 l/m 8,1 km/h (2 Bft) SO 135 0 min 0 W/m -4,4 C -1,7 C 8,1 km/h (2 Bft)
28.01.2011 16:44 0,0 C 72 % 1025,5 hPa 0,0 l/m 8,3 km/h (2 Bft) O-SO 120 0 min 0 W/m -4,4 C -1,9 C 8,3 km/h (2 Bft)
28.01.2011 16:49 -0,2 C 73 % 1025,5 hPa 0,0 l/m 8,6 km/h (2 Bft) O-SO 120 0 min 0 W/m -4,4 C -2,4 C 8,6 km/h (2 Bft)
28.01.2011 16:54 -0,2 C 73 % 1025,5 hPa 0,0 l/m 4,2 km/h (1 Bft) O-SO 120 0 min 0 W/m -4,4 C -0,2 C 4,2 km/h (1 Bft)
28.01.2011 16:59 -0,3 C 73 % 1025,5 hPa 0,0 l/m 6,6 km/h (2 Bft) O 90 0 min 0 W/m -4,5 C -0,5 C 6,6 km/h (2 Bft)
28.01.2011 17:04 -0,3 C 74 % 1025,5 hPa 0,0 l/m 11,5 km/h (2 Bft) SO 125 0 min 0 W/m -4,4 C -5,0 C 11,5 km/h (2 Bft)
28.01.2011 17:09 -0,4 C 74 % 1025,5 hPa 0,0 l/m 7,3 km/h (2 Bft) O 100 0 min 0 W/m -4,5 C -1,3 C 7,3 km/h (2 Bft)
28.01.2011 17:14 -0,5 C 74 % 1025,5 hPa 0,0 l/m 2,4 km/h (1 Bft) O 90 0 min 0 W/m -4,5 C -0,5 C 2,4 km/h (1 Bft)
28.01.2011 17:19 -0,6 C 74 % 1025,5 hPa 0,0 l/m 4,3 km/h (1 Bft) O 90 0 min 0 W/m -4,6 C -0,6 C 4,3 km/h (1 Bft)
28.01.2011 17:24 -0,6 C 74 % 1025,5 hPa 0,0 l/m 8,0 km/h (2 Bft) SO 135 0 min 0 W/m -4,6 C -2,3 C 8,0 km/h (2 Bft)
28.01.2011 17:29 -0,6 C 74 % 1025,5 hPa 0,0 l/m 8,0 km/h (2 Bft) O 90 0 min 0 W/m -4,6 C -2,3 C 8,0 km/h (2 Bft)
28.01.2011 17:34 -0,6 C 74 % 1025,5 hPa 0,0 l/m 7,3 km/h (2 Bft) O 95 0 min 0 W/m -4,6 C -1,6 C 7,3 km/h (2 Bft)
28.01.2011 17:39 -0,6 C 74 % 1025,5 hPa 0,0 l/m 7,9 km/h (2 Bft) O-SO 105 0 min 0 W/m -4,6 C -2,2 C 7,9 km/h (2 Bft)
28.01.2011 17:44 -0,6 C 74 % 1025,5 hPa 0,0 l/m 6,5 km/h (2 Bft) O-SO 120 0 min 0 W/m -4,6 C -0,7 C 6,5 km/h (2 Bft)
28.01.2011 17:49 -0,6 C 74 % 1025,5 hPa 0,0 l/m 11,9 km/h (2 Bft) O-SO 110 0 min 0 W/m -4,6 C -5,6 C 11,9 km/h (2 Bft)
28.01.2011 17:54 -0,6 C 74 % 1025,5 hPa 0,0 l/m 7,7 km/h (2 Bft) O-SO 110 0 min 0 W/m -4,6 C -2,0 C 7,7 km/h (2 Bft)
28.01.2011 17:59 -0,6 C 74 % 1025,5 hPa 0,0 l/m 1,6 km/h (1 Bft) SO 135 0 min 0 W/m -4,6 C -0,6 C 1,6 km/h (1 Bft)
28.01.2011 18:04 -0,7 C 74 % 1025,5 hPa 0,0 l/m 5,5 km/h (2 Bft) S-SO 160 0 min 0 W/m -4,7 C -0,7 C 5,5 km/h (2 Bft)
28.01.2011 18:09 -0,7 C 75 % 1025,5 hPa 0,0 l/m 10,5 km/h (2 Bft) SO 145 0 min 0 W/m -4,6 C -4,6 C 10,5 km/h (2 Bft)
28.01.2011 18:15 -0,7 C 75 % 1025,5 hPa 0,0 l/m 8,5 km/h (2 Bft) O 90 0 min 0 W/m -4,6 C -2,9 C 8,5 km/h (2 Bft)
28.01.2011 18:19 -0,7 C 74 % 1025,5 hPa 0,0 l/m 7,8 km/h (2 Bft) O 95 0 min 0 W/m -4,7 C -2,2 C 7,8 km/h (2 Bft)
28.01.2011 18:24 -0,8 C 74 % 1025,5 hPa 0,0 l/m 1,6 km/h (1 Bft) O 85 0 min 0 W/m -4,8 C -0,8 C 1,6 km/h (1 Bft)
28.01.2011 18:29 -0,8 C 75 % 1025,5 hPa 0,0 l/m 11,4 km/h (2 Bft) O-SO 115 0 min 0 W/m -4,7 C -5,5 C 11,4 km/h (2 Bft)
28.01.2011 18:34 -0,8 C 75 % 1025,5 hPa 0,0 l/m 7,9 km/h (2 Bft) O 95 0 min 0 W/m -4,7 C -2,4 C 7,9 km/h (2 Bft)
28.01.2011 18:39 -0,8 C 75 % 1025,5 hPa 0,0 l/m 2,6 km/h (1 Bft) SO 135 0 min 0 W/m -4,7 C -0,8 C 2,6 km/h (1 Bft)
28.01.2011 18:44 -0,8 C 75 % 1025,5 hPa 0,0 l/m 9,1 km/h (2 Bft) SO 125 0 min 0 W/m -4,7 C -3,5 C 9,1 km/h (2 Bft)
28.01.2011 18:49 -0,8 C 75 % 1025,5 hPa 0,0 l/m 9,9 km/h (2 Bft) O-SO 110 0 min 0 W/m -4,7 C -4,2 C 9,9 km/h (2 Bft)
28.01.2011 18:54 -0,8 C 75 % 1025,5 hPa 0,0 l/m 2,0 km/h (1 Bft) SO 125 0 min 0 W/m -4,7 C -0,8 C 2,0 km/h (1 Bft)
28.01.2011 18:59 -0,8 C 75 % 1025,5 hPa 0,0 l/m 3,3 km/h (1 Bft) O 100 0 min 0 W/m -4,7 C -0,8 C 3,3 km/h (1 Bft)
28.01.2011 19:04 -0,8 C 75 % 1025,5 hPa 0,0 l/m 6,3 km/h (2 Bft) O-SO 115 0 min 0 W/m -4,7 C -0,8 C 6,3 km/h (2 Bft)
28.01.2011 19:10 -0,8 C 75 % 1025,5 hPa 0,0 l/m 3,5 km/h (1 Bft) O 100 0 min 0 W/m -4,7 C -0,8 C 3,5 km/h (1 Bft)
28.01.2011 19:14 -0,8 C 75 % 1025,5 hPa 0,0 l/m 11,5 km/h (2 Bft) O-SO 120 0 min 0 W/m -4,7 C -5,5 C 11,5 km/h (2 Bft)
28.01.2011 19:19 -0,8 C 75 % 1025,5 hPa 0,0 l/m 5,4 km/h (2 Bft) SO 125 0 min 0 W/m -4,7 C -0,8 C 5,4 km/h (2 Bft)
28.01.2011 19:24 -0,9 C 75 % 1025,5 hPa 0,0 l/m 1,0 km/h (0 Bft) O-SO 120 0 min 0 W/m -4,8 C -0,9 C 1,0 km/h (0 Bft)
28.01.2011 19:29 -0,9 C 75 % 1025,5 hPa 0,0 l/m 1,9 km/h (1 Bft) S-SO 150 0 min 0 W/m -4,8 C -0,9 C 1,9 km/h (1 Bft)
28.01.2011 19:34 -0,9 C 75 % 1025,5 hPa 0,0 l/m 5,9 km/h (2 Bft) SO 135 0 min 0 W/m -4,8 C -0,9 C 5,9 km/h (2 Bft)
28.01.2011 19:39 -0,9 C 75 % 1025,5 hPa 0,0 l/m 3,7 km/h (1 Bft) SO 135 0 min 0 W/m -4,8 C -0,9 C 3,7 km/h (1 Bft)
28.01.2011 19:44 -1,0 C 75 % 1025,5 hPa 0,0 l/m 9,6 km/h (2 Bft) SO 140 0 min 0 W/m -4,9 C -4,2 C 9,6 km/h (2 Bft)
28.01.2011 19:49 -1,0 C 75 % 1025,5 hPa 0,0 l/m 0,6 km/h (0 Bft) O 90 0 min 0 W/m -4,9 C -1,0 C 0,6 km/h (0 Bft)
28.01.2011 19:54 -1,0 C 75 % 1025,5 hPa 0,0 l/m 6,8 km/h (2 Bft) SO 145 0 min 0 W/m -4,9 C -1,4 C 6,8 km/h (2 Bft)
28.01.2011 19:59 -1,0 C 75 % 1025,5 hPa 0,0 l/m 0,7 km/h (0 Bft) O-SO 115 0 min 0 W/m -4,9 C -1,0 C 0,7 km/h (0 Bft)
28.01.2011 20:04 -1,0 C 75 % 1025,5 hPa 0,0 l/m 8,3 km/h (2 Bft) O-SO 115 0 min 0 W/m -4,9 C -3,0 C 8,3 km/h (2 Bft)
28.01.2011 20:09 -1,0 C 75 % 1025,5 hPa 0,0 l/m 8,7 km/h (2 Bft) O-SO 115 0 min 0 W/m -4,9 C -3,4 C 8,7 km/h (2 Bft)
28.01.2011 20:14 -1,0 C 76 % 1025,5 hPa 0,0 l/m 8,3 km/h (2 Bft) SO 135 0 min 0 W/m -4,7 C -3,0 C 8,3 km/h (2 Bft)
28.01.2011 20:19 -1,0 C 76 % 1025,5 hPa 0,0 l/m 10,8 km/h (2 Bft) SO 130 0 min 0 W/m -4,7 C -5,2 C 10,8 km/h (2 Bft)
28.01.2011 20:24 -1,0 C 76 % 1025,5 hPa 0,0 l/m 5,9 km/h (2 Bft) O-SO 105 0 min 0 W/m -4,7 C -1,0 C 5,9 km/h (2 Bft)
28.01.2011 20:29 -1,0 C 76 % 1025,5 hPa 0,0 l/m 0,7 km/h (0 Bft) O-SO 105 0 min 0 W/m -4,7 C -1,0 C 0,7 km/h (0 Bft)
28.01.2011 20:34 -1,0 C 76 % 1025,5 hPa 0,0 l/m 5,2 km/h (1 Bft) O-SO 110 0 min 0 W/m -4,7 C -1,0 C 5,2 km/h (1 Bft)
28.01.2011 20:39 -1,1 C 76 % 1025,5 hPa 0,0 l/m 0,1 km/h (0 Bft) O-SO 110 0 min 0 W/m -4,8 C -1,1 C 0,1 km/h (0 Bft)
28.01.2011 20:44 -1,1 C 77 % 1025,5 hPa 0,0 l/m 8,1 km/h (2 Bft) O-SO 115 0 min 0 W/m -4,6 C -2,9 C 8,1 km/h (2 Bft)
28.01.2011 20:49 -1,1 C 77 % 1025,5 hPa 0,0 l/m 5,7 km/h (2 Bft) S-SO 160 0 min 0 W/m -4,6 C -1,1 C 5,7 km/h (2 Bft)
28.01.2011 20:54 -1,2 C 77 % 1025,5 hPa 0,0 l/m 0,4 km/h (0 Bft) S-SO 160 0 min 0 W/m -4,7 C -1,2 C 0,4 km/h (0 Bft)
28.01.2011 20:59 -1,2 C 77 % 1025,5 hPa 0,0 l/m 3,6 km/h (1 Bft) S-SO 155 0 min 0 W/m -4,7 C -1,2 C 3,6 km/h (1 Bft)
28.01.2011 21:04 -1,2 C 77 % 1025,5 hPa 0,0 l/m 5,4 km/h (2 Bft) SO 145 0 min 0 W/m -4,7 C -1,2 C 5,4 km/h (2 Bft)
28.01.2011 21:09 -1,3 C 77 % 1025,5 hPa 0,0 l/m 4,7 km/h (1 Bft) SO 135 0 min 0 W/m -4,8 C -1,3 C 4,7 km/h (1 Bft)
28.01.2011 21:14 -1,3 C 77 % 1025,5 hPa 0,0 l/m 4,0 km/h (1 Bft) SO 135 0 min 0 W/m -4,8 C -1,3 C 4,0 km/h (1 Bft)
28.01.2011 21:19 -1,3 C 77 % 1025,5 hPa 0,0 l/m 3,6 km/h (1 Bft) SO 135 0 min 0 W/m -4,8 C -1,3 C 3,6 km/h (1 Bft)
28.01.2011 21:24 -1,3 C 77 % 1025,5 hPa 0,0 l/m 4,4 km/h (1 Bft) SO 135 0 min 0 W/m -4,8 C -1,3 C 4,4 km/h (1 Bft)
28.01.2011 21:29 -1,3 C 77 % 1025,5 hPa 0,0 l/m 0,0 km/h (0 Bft) SO 130 0 min 0 W/m -4,8 C -1,3 C 0,0 km/h (0 Bft)
28.01.2011 21:34 -1,3 C 77 % 1025,5 hPa 0,0 l/m 0,8 km/h (0 Bft) SO 135 0 min 0 W/m -4,8 C -1,3 C 0,8 km/h (0 Bft)
28.01.2011 21:39 -1,4 C 77 % 1025,5 hPa 0,0 l/m 8,2 km/h (2 Bft) SO 135 0 min 0 W/m -4,9 C -3,3 C 8,2 km/h (2 Bft)
28.01.2011 21:44 -1,4 C 77 % 1025,5 hPa 0,0 l/m 0,7 km/h (0 Bft) O-SO 110 0 min 0 W/m -4,9 C -1,4 C 0,7 km/h (0 Bft)
28.01.2011 21:49 -1,5 C 77 % 1025,5 hPa 0,0 l/m 5,3 km/h (1 Bft) O-SO 110 0 min 0 W/m -5,0 C -1,5 C 5,3 km/h (1 Bft)
28.01.2011 21:55 -1,5 C 77 % 1025,5 hPa 0,0 l/m 6,7 km/h (2 Bft) S-SO 155 0 min 0 W/m -5,0 C -1,8 C 6,7 km/h (2 Bft)
28.01.2011 21:59 -1,5 C 77 % 1025,5 hPa 0,0 l/m 6,0 km/h (2 Bft) S-SO 155 0 min 0 W/m -5,0 C -1,5 C 6,0 km/h (2 Bft)
28.01.2011 22:04 -1,5 C 77 % 1024,5 hPa 0,0 l/m 5,4 km/h (2 Bft) S-SO 155 0 min 0 W/m -5,0 C -1,5 C 5,4 km/h (2 Bft)
28.01.2011 22:09 -1,5 C 77 % 1024,5 hPa 0,0 l/m 7,8 km/h (2 Bft) SO 145 0 min 0 W/m -5,0 C -3,0 C 7,8 km/h (2 Bft)
28.01.2011 22:15 -1,5 C 77 % 1024,5 hPa 0,0 l/m 3,2 km/h (1 Bft) S-SO 165 0 min 0 W/m -5,0 C -1,5 C 3,2 km/h (1 Bft)
28.01.2011 22:19 -1,5 C 77 % 1024,5 hPa 0,0 l/m 5,3 km/h (1 Bft) S-SO 165 0 min 0 W/m -5,0 C -1,5 C 5,3 km/h (1 Bft)
28.01.2011 22:24 -1,5 C 77 % 1024,5 hPa 0,0 l/m 6,4 km/h (2 Bft) SO 145 0 min 0 W/m -5,0 C -1,5 C 6,4 km/h (2 Bft)
28.01.2011 22:29 -1,5 C 77 % 1024,5 hPa 0,0 l/m 4,7 km/h (1 Bft) SO 145 0 min 0 W/m -5,0 C -1,5 C 4,7 km/h (1 Bft)
28.01.2011 22:34 -1,5 C 77 % 1024,5 hPa 0,0 l/m 5,5 km/h (2 Bft) SO 145 0 min 0 W/m -5,0 C -1,5 C 5,5 km/h (2 Bft)
28.01.2011 22:39 -1,5 C 77 % 1024,5 hPa 0,0 l/m 4,0 km/h (1 Bft) SO 145 0 min 0 W/m -5,0 C -1,5 C 4,0 km/h (1 Bft)
28.01.2011 22:44 -1,5 C 77 % 1024,5 hPa 0,0 l/m 5,2 km/h (1 Bft) SO 145 0 min 0 W/m -5,0 C -1,5 C 5,2 km/h (1 Bft)
28.01.2011 22:49 -1,6 C 77 % 1024,5 hPa 0,0 l/m 4,2 km/h (1 Bft) SO 145 0 min 0 W/m -5,1 C -1,6 C 4,2 km/h (1 Bft)
28.01.2011 22:54 -1,6 C 77 % 1024,5 hPa 0,0 l/m 5,1 km/h (1 Bft) SO 145 0 min 0 W/m -5,1 C -1,6 C 5,1 km/h (1 Bft)
28.01.2011 22:59 -1,7 C 77 % 1024,5 hPa 0,0 l/m 5,5 km/h (2 Bft) SO 145 0 min 0 W/m -5,2 C -1,7 C 5,5 km/h (2 Bft)
28.01.2011 23:04 -1,7 C 77 % 1024,5 hPa 0,0 l/m 5,2 km/h (1 Bft) SO 145 0 min 0 W/m -5,2 C -1,7 C 5,2 km/h (1 Bft)
28.01.2011 23:09 -1,7 C 77 % 1024,5 hPa 0,0 l/m 6,1 km/h (2 Bft) SO 145 0 min 0 W/m -5,2 C -1,7 C 6,1 km/h (2 Bft)
28.01.2011 23:14 -1,7 C 77 % 1024,5 hPa 0,0 l/m 9,7 km/h (2 Bft) SO 145 0 min 0 W/m -5,2 C -5,1 C 9,7 km/h (2 Bft)
28.01.2011 23:19 -1,8 C 77 % 1024,5 hPa 0,0 l/m 7,2 km/h (2 Bft) SO 140 0 min 0 W/m -5,3 C -2,7 C 7,2 km/h (2 Bft)
28.01.2011 23:24 -1,8 C 77 % 1024,5 hPa 0,0 l/m 8,9 km/h (2 Bft) SO 145 0 min 0 W/m -5,3 C -4,4 C 8,9 km/h (2 Bft)
28.01.2011 23:29 -1,8 C 77 % 1024,5 hPa 0,0 l/m 8,7 km/h (2 Bft) SO 125 0 min 0 W/m -5,3 C -4,2 C 8,7 km/h (2 Bft)
28.01.2011 23:34 -1,8 C 77 % 1024,5 hPa 0,0 l/m 8,5 km/h (2 Bft) SO 140 0 min 0 W/m -5,3 C -4,0 C 8,5 km/h (2 Bft)
28.01.2011 23:39 -1,8 C 77 % 1024,5 hPa 0,0 l/m 6,3 km/h (2 Bft) O-SO 115 0 min 0 W/m -5,3 C -1,8 C 6,3 km/h (2 Bft)
28.01.2011 23:44 -1,8 C 77 % 1024,5 hPa 0,0 l/m 9,0 km/h (2 Bft) SO 135 0 min 0 W/m -5,3 C -4,5 C 9,0 km/h (2 Bft)
28.01.2011 23:49 -1,8 C 78 % 1024,5 hPa 0,0 l/m 8,0 km/h (2 Bft) S 170 0 min 0 W/m -5,1 C -3,5 C 8,0 km/h (2 Bft)
28.01.2011 23:54 -1,8 C 77 % 1024,5 hPa 0,0 l/m 7,4 km/h (2 Bft) O-SO 115 0 min 0 W/m -5,3 C -2,9 C 7,4 km/h (2 Bft)
28.01.2011 23:59 -1,8 C 78 % 1024,5 hPa 0,0 l/m 9,0 km/h (2 Bft) SO 135 0 min 0 W/m -5,1 C -4,5 C 9,0 km/h (2 Bft)
_ Min-Zeit 07:29 14:20 16:34 - 00:04 - - - - 07:29 15:49 00:04
Minimum _ -3,4 C 70 % 1016,5 hPa - 0,0 km/h (0 Bft) - - - - -5,9 C -7,0 C 0,0 km/h (0 Bft)
_ Max-Zeit 14:04 11:14 03:09 00:04 15:49 - - 00:04 00:04 11:14 13:44 15:49
Maximum _ 1,4 C 86 % 1027,5 hPa 0,0 l/m 16,6 km/h
O-SO (3 Bft)
- - 0 min 0 W/m -1,5 C 1,2 C 16,6 km/h
O-SO (3 Bft)
Durchschnitt _ -1,5 C 78 % 1026,2 hPa #0,0 l/m 5,3 km/h (1 Bft) O - #0 min. 0 W/m -4,8 C -2,5 C 5,3 km/h (1 Bft)
copyright by Holger Just